Time;durP1;ratioP1;P1;durP2;ratioP2;P2;SDS_P1;SDS_P2;PMS_P1;PMS_P2;Temp;Humidity;BMP_temperature;BMP_pressure;BME280_temperature;BME280_humidity;BME280_pressure;Samples;Min_cycle;Max_cycle;Signal;HPM_P1;HPM_P2
2023/01/28 06:15:12;;;;;;;20.37;13.27;;;0.00;97.70;;;;;;5770810;23;20266;-87
2023/01/28 06:17:39;;;;;;;19.53;12.27;;;0.00;97.50;;;;;;5012839;28;20207;-91
2023/01/28 06:20:08;;;;;;;18.90;12.13;;;0.10;97.40;;;;;;5012207;28;20203;-90
2023/01/28 06:22:35;;;;;;;20.43;12.90;;;0.10;97.00;;;;;;5008816;28;20231;-91
2023/01/28 06:25:03;;;;;;;22.53;13.73;;;0.00;96.90;;;;;;4986512;28;20201;-90
2023/01/28 06:27:30;;;;;;;21.23;13.63;;;0.00;97.30;;;;;;4986489;28;20200;-89
2023/01/28 06:29:57;;;;;;;22.20;13.60;;;0.00;97.40;;;;;;4980472;28;20220;-89
2023/01/28 06:32:25;;;;;;;19.97;12.80;;;0.00;97.30;;;;;;4989873;28;20680;-88
2023/01/28 06:34:53;;;;;;;19.57;12.90;;;0.00;97.20;;;;;;4983961;28;20217;-90
2023/01/28 06:37:19;;;;;;;21.53;13.83;;;0.00;97.00;;;;;;4981511;28;20201;-87
2023/01/28 06:39:46;;;;;;;21.43;13.10;;;0.00;97.20;;;;;;4978832;28;20204;-88
2023/01/28 06:42:13;;;;;;;20.80;13.60;;;0.00;97.20;;;;;;4979863;28;20200;-88
2023/01/28 06:44:40;;;;;;;20.13;13.57;;;0.00;97.30;;;;;;4981548;28;20211;-87
2023/01/28 06:47:08;;;;;;;23.40;13.33;;;-0.10;97.50;;;;;;4975075;28;20582;-87
2023/01/28 06:49:36;;;;;;;20.07;13.50;;;-0.10;97.20;;;;;;4985423;28;20224;-89
2023/01/28 06:52:04;;;;;;;20.80;13.20;;;-0.10;97.20;;;;;;4991322;28;20566;-87
2023/01/28 06:54:30;;;;;;;19.80;13.00;;;-0.10;97.10;;;;;;4982077;28;20205;-87
2023/01/28 06:56:57;;;;;;;20.10;13.17;;;-0.10;97.20;;;;;;4976736;28;20201;-87
2023/01/28 06:59:24;;;;;;;18.43;11.80;;;-0.10;97.20;;;;;;4983778;28;20208;-89
2023/01/28 07:01:51;;;;;;;20.00;12.47;;;0.00;97.20;;;;;;4985043;28;20211;-91
2023/01/28 07:04:18;;;;;;;20.33;12.40;;;0.10;96.70;;;;;;4979348;28;20208;-88
2023/01/28 07:06:46;;;;;;;20.17;13.13;;;0.00;96.90;;;;;;4976870;28;20262;-89
2023/01/28 07:09:13;;;;;;;21.17;13.20;;;0.00;96.90;;;;;;4976777;28;20233;-87
2023/01/28 07:11:40;;;;;;;21.77;13.90;;;-0.10;97.20;;;;;;4981526;28;20204;-91
2023/01/28 07:14:07;;;;;;;22.43;14.43;;;0.00;97.20;;;;;;4985319;28;20200;-89
2023/01/28 07:16:33;;;;;;;21.17;12.83;;;0.00;97.40;;;;;;4985367;28;20232;-89
2023/01/28 07:19:00;;;;;;;22.83;13.80;;;-0.10;97.60;;;;;;4975623;28;20692;-88
2023/01/28 07:21:27;;;;;;;25.03;14.37;;;0.10;97.30;;;;;;4974488;28;20680;-89
2023/01/28 07:23:56;;;;;;;23.63;14.03;;;0.20;97.10;;;;;;4977237;28;20228;-89
2023/01/28 07:26:23;;;;;;;22.53;13.47;;;0.20;97.20;;;;;;4979782;28;20204;-89
2023/01/28 07:28:50;;;;;;;23.80;13.77;;;0.20;97.20;;;;;;4976746;28;20228;-87
2023/01/28 07:31:17;;;;;;;23.53;14.10;;;0.00;97.50;;;;;;4977582;28;20634;-89
2023/01/28 07:33:44;;;;;;;24.60;15.10;;;-0.10;98.10;;;;;;4977738;28;20664;-87
2023/01/28 07:36:11;;;;;;;25.07;15.37;;;-0.10;98.00;;;;;;4984008;28;20213;-89
2023/01/28 07:38:37;;;;;;;24.43;14.97;;;-0.10;98.10;;;;;;4994202;28;20204;-91
2023/01/28 07:41:06;;;;;;;24.63;14.70;;;-0.10;98.20;;;;;;4993362;28;20199;-90
2023/01/28 07:43:33;;;;;;;25.90;15.30;;;-0.10;97.90;;;;;;4996125;28;20205;-89
2023/01/28 07:46:00;;;;;;;22.10;14.33;;;-0.20;98.20;;;;;;4981945;28;20204;-92
2023/01/28 07:48:27;;;;;;;24.70;15.00;;;-0.30;98.40;;;;;;4977660;28;20216;-90
2023/01/28 07:50:58;;;;;;;30.23;15.67;;;-0.20;98.50;;;;;;4987845;28;20580;-86
2023/01/28 07:53:24;;;;;;;23.67;14.17;;;-0.20;98.60;;;;;;4985067;28;20219;-87
2023/01/28 07:55:51;;;;;;;24.20;15.17;;;-0.10;98.20;;;;;;4975250;28;20211;-86
2023/01/28 07:58:19;;;;;;;25.63;15.57;;;-0.10;98.00;;;;;;4981121;28;20205;-84
2023/01/28 08:00:46;;;;;;;23.43;14.70;;;0.00;98.00;;;;;;4982374;28;20216;-83
2023/01/28 08:03:15;;;;;;;26.97;15.77;;;0.00;97.90;;;;;;4986607;28;20196;-86
2023/01/28 08:05:45;;;;;;;25.40;15.27;;;-0.10;98.10;;;;;;4978627;28;20667;-85
2023/01/28 08:08:12;;;;;;;28.40;15.03;;;-0.10;98.20;;;;;;4982978;28;20208;-87
2023/01/28 08:10:40;;;;;;;21.93;14.00;;;-0.10;98.30;;;;;;4974800;28;20314;-86
2023/01/28 08:13:09;;;;;;;25.37;14.27;;;-0.10;98.00;;;;;;4983430;28;20204;-85
2023/01/28 08:15:37;;;;;;;23.83;14.67;;;0.00;98.10;;;;;;4983803;28;20263;-87
2023/01/28 08:18:05;;;;;;;23.40;14.57;;;0.00;98.00;;;;;;4977693;28;20207;-85
2023/01/28 08:20:32;;;;;;;24.20;14.80;;;0.10;98.00;;;;;;4981703;28;20693;-86
2023/01/28 08:23:08;;;;;;;21.30;13.77;;;0.20;97.60;;;;;;4987197;28;20217;-84
2023/01/28 08:25:36;;;;;;;21.93;14.03;;;0.20;97.50;;;;;;4976420;28;20211;-85
2023/01/28 08:28:03;;;;;;;24.00;13.83;;;0.30;97.20;;;;;;4981801;28;20208;-85
2023/01/28 08:30:30;;;;;;;22.47;13.43;;;0.30;97.00;;;;;;4977060;28;20235;-84
2023/01/28 08:33:01;;;;;;;20.20;12.90;;;0.30;97.00;;;;;;4978006;28;20213;-86
2023/01/28 08:35:32;;;;;;;22.43;14.37;;;0.30;97.10;;;;;;4983961;28;20200;-83
2023/01/28 08:38:01;;;;;;;20.77;13.23;;;0.30;97.20;;;;;;4983542;28;20219;-88
2023/01/28 08:40:29;;;;;;;18.83;13.00;;;0.40;97.20;;;;;;4982383;28;20208;-88
2023/01/28 08:42:56;;;;;;;20.87;13.73;;;0.40;97.30;;;;;;5290734;23;20247;-86
2023/01/28 08:45:24;;;;;;;21.03;13.40;;;0.40;97.10;;;;;;5016131;28;20211;-89
2023/01/28 08:47:53;;;;;;;19.73;13.13;;;0.60;96.80;;;;;;5011575;28;20250;-88
2023/01/28 08:50:23;;;;;;;19.57;12.63;;;0.60;96.90;;;;;;5014384;28;20245;-89
2023/01/28 08:52:56;;;;;;;18.90;12.93;;;0.50;96.70;;;;;;5009010;28;20191;-85
2023/01/28 08:55:23;;;;;;;19.47;12.10;;;0.60;97.00;;;;;;5010352;28;20199;-84
2023/01/28 08:57:49;;;;;;;19.73;12.77;;;0.70;96.80;;;;;;5011618;28;20196;-85
2023/01/28 09:00:17;;;;;;;18.77;12.00;;;0.70;96.40;;;;;;5002895;28;20191;-85
2023/01/28 09:02:44;;;;;;;20.57;12.47;;;0.60;96.40;;;;;;4998423;28;20210;-85
2023/01/28 09:05:11;;;;;;;20.93;13.27;;;0.60;96.20;;;;;;5008240;28;20202;-85
2023/01/28 09:07:39;;;;;;;19.60;11.77;;;0.70;96.10;;;;;;5008701;28;20225;-90
2023/01/28 09:10:06;;;;;;;18.97;12.90;;;0.70;96.20;;;;;;5001112;28;20227;-90
2023/01/28 09:12:33;;;;;;;19.50;12.40;;;0.70;96.20;;;;;;5006274;28;20195;-86
2023/01/28 09:15:01;;;;;;;20.30;13.13;;;0.80;96.40;;;;;;5010305;28;20199;-88
2023/01/28 09:17:28;;;;;;;18.13;12.40;;;0.80;96.30;;;;;;5001552;28;20258;-90
2023/01/28 09:19:55;;;;;;;19.53;13.00;;;0.80;96.00;;;;;;5007502;28;20267;-89
2023/01/28 09:22:22;;;;;;;19.47;13.07;;;0.90;96.20;;;;;;5012916;28;20283;-89
2023/01/28 09:24:50;;;;;;;19.23;13.10;;;0.90;95.50;;;;;;5023845;28;20206;-86
2023/01/28 09:27:17;;;;;;;17.93;11.83;;;1.00;95.80;;;;;;5019328;28;20222;-88
2023/01/28 09:29:44;;;;;;;18.57;12.07;;;1.00;95.80;;;;;;4997651;28;20236;-87
2023/01/28 09:32:11;;;;;;;18.63;12.33;;;1.10;95.50;;;;;;5005745;28;20739;-86
2023/01/28 09:34:38;;;;;;;19.30;12.13;;;1.20;94.90;;;;;;5002082;28;20207;-86
2023/01/28 09:37:05;;;;;;;18.97;12.10;;;1.20;95.20;;;;;;5002633;28;20294;-86
2023/01/28 09:39:31;;;;;;;17.03;11.80;;;1.30;94.50;;;;;;5004167;28;20203;-85
2023/01/28 09:42:15;;;;;;;18.70;12.73;;;1.20;94.80;;;;;;5004598;28;20232;-87
2023/01/28 09:44:53;;;;;;;17.93;11.50;;;1.30;94.30;;;;;;5010851;28;20235;-91
2023/01/28 09:47:26;;;;;;;18.83;12.33;;;1.20;94.70;;;;;;5004714;28;20203;-88
2023/01/28 09:49:56;;;;;;;19.53;12.73;;;1.40;94.30;;;;;;5002049;28;20227;-85
2023/01/28 09:52:25;;;;;;;19.30;12.53;;;1.30;94.30;;;;;;5010850;28;20619;-88
2023/01/28 09:54:56;;;;;;;19.60;12.73;;;1.40;94.40;;;;;;5009742;28;20215;-88
2023/01/28 09:57:26;;;;;;;20.33;13.20;;;1.40;94.30;;;;;;4999897;28;20207;-88
2023/01/28 09:59:53;;;;;;;23.63;13.13;;;1.50;94.30;;;;;;5008282;28;20211;-89
2023/01/28 10:02:37;;;;;;;21.33;13.87;;;1.50;94.30;;;;;;5002510;28;20413;-87
2023/01/28 10:05:16;;;;;;;21.70;13.47;;;1.70;94.40;;;;;;5006100;28;20596;-87
2023/01/28 10:07:53;;;;;;;19.63;12.47;;;1.80;94.40;;;;;;5004667;28;20195;-88
2023/01/28 10:10:26;;;;;;;20.67;12.93;;;1.90;93.60;;;;;;5006265;28;20305;-86
2023/01/28 10:13:16;;;;;;;21.23;12.83;;;1.80;93.30;;;;;;5003009;28;20200;-88
2023/01/28 10:16:13;;;;;;;20.37;13.27;;;1.90;93.20;;;;;;5003137;28;20199;-89
2023/01/28 10:18:46;;;;;;;18.10;12.57;;;1.80;93.30;;;;;;4988933;28;20598;-88
2023/01/28 10:21:20;;;;;;;19.03;12.70;;;2.00;93.30;;;;;;5005663;28;20211;-88
2023/01/28 10:23:57;;;;;;;18.13;12.20;;;2.10;92.60;;;;;;5005832;28;20227;-88
2023/01/28 10:26:28;;;;;;;18.20;12.10;;;2.30;92.20;;;;;;5013908;28;20203;-87
2023/01/28 10:29:00;;;;;;;18.20;13.00;;;2.30;91.80;;;;;;5003527;28;20687;-87
2023/01/28 10:31:32;;;;;;;17.13;11.53;;;2.30;91.80;;;;;;4999519;28;20227;-88
2023/01/28 10:33:59;;;;;;;17.30;13.10;;;2.20;91.80;;;;;;5128830;23;20540;-88
2023/01/28 10:36:27;;;;;;;18.23;12.00;;;2.10;91.90;;;;;;5004990;28;20214;-86
2023/01/28 10:38:53;;;;;;;27.47;13.10;;;2.20;92.20;;;;;;4991323;28;20822;-87
2023/01/28 10:41:24;;;;;;;17.00;11.67;;;2.10;91.80;;;;;;5002059;28;20212;-89
2023/01/28 10:43:51;;;;;;;17.70;12.03;;;2.10;91.90;;;;;;4999697;28;20223;-89
2023/01/28 10:46:23;;;;;;;17.57;11.90;;;2.20;91.50;;;;;;5008574;28;20211;-91
2023/01/28 10:48:59;;;;;;;17.50;12.23;;;2.10;91.50;;;;;;5007170;28;20203;-89
2023/01/28 10:51:36;;;;;;;17.53;12.33;;;2.10;92.10;;;;;;4989529;28;20238;-87
2023/01/28 10:54:17;;;;;;;17.77;12.20;;;1.90;92.10;;;;;;5055498;23;20255;-88
2023/01/28 10:56:45;;;;;;;15.57;11.03;;;2.00;92.40;;;;;;4990536;28;20246;-87
2023/01/28 10:59:20;;;;;;;17.47;12.10;;;2.30;90.50;;;;;;4997814;28;20234;-88
2023/01/28 11:01:53;;;;;;;16.40;12.33;;;2.40;90.30;;;;;;4994653;28;20227;-86
2023/01/28 11:04:24;;;;;;;17.03;12.20;;;2.30;91.00;;;;;;4990787;28;20739;-90
2023/01/28 11:06:56;;;;;;;17.97;12.70;;;2.50;90.40;;;;;;4997534;28;20227;-86
2023/01/28 11:09:25;;;;;;;19.63;13.20;;;2.60;88.30;;;;;;4989905;28;20250;-86
2023/01/28 11:11:55;;;;;;;16.30;11.57;;;2.50;90.20;;;;;;5001735;28;20223;-87
2023/01/28 11:14:24;;;;;;;19.57;12.60;;;2.50;89.60;;;;;;4999222;28;20580;-86
2023/01/28 11:16:55;;;;;;;15.77;11.10;;;2.30;90.90;;;;;;5006424;28;20196;-88
2023/01/28 11:19:29;;;;;;;15.17;11.43;;;2.20;90.70;;;;;;5003672;28;20222;-93
2023/01/28 11:21:58;;;;;;;17.60;12.33;;;2.20;91.00;;;;;;5003200;28;20195;-87
2023/01/28 11:24:29;;;;;;;16.37;12.00;;;2.20;90.70;;;;;;5002678;28;20302;-90
2023/01/28 11:26:58;;;;;;;15.27;11.03;;;2.40;90.50;;;;;;5013217;28;20207;-90
2023/01/28 11:44:54;;;;;;;15.17;10.73;;;2.50;87.70;;;;;;5317815;22;20242;-92
2023/01/28 11:47:38;;;;;;;15.37;10.80;;;2.70;85.20;;;;;;4983632;28;20205;-92
2023/01/28 11:50:23;;;;;;;13.33;9.60;;;2.80;84.50;;;;;;4987953;28;20235;-92
2023/01/28 11:53:10;;;;;;;16.03;10.10;;;2.90;82.30;;;;;;5062351;23;20248;-91
2023/01/28 11:58:22;;;;;;;12.50;9.23;;;3.20;79.30;;;;;;5210060;22;20205;-90
2023/01/28 12:01:01;;;;;;;17.10;11.10;;;3.20;78.00;;;;;;5140989;22;20260;-87
2023/01/28 12:03:41;;;;;;;12.63;9.60;;;3.20;78.70;;;;;;5043975;28;20231;-86
2023/01/28 12:06:28;;;;;;;13.73;9.90;;;3.10;79.30;;;;;;5051512;28;20194;-90
2023/01/28 12:09:08;;;;;;;10.10;7.27;;;3.00;82.40;;;;;;5051173;28;20205;-91
2023/01/28 12:14:36;;;;;;;11.90;8.50;;;3.20;77.30;;;;;;5042394;28;20204;-84
2023/01/28 12:17:16;;;;;;;13.50;8.97;;;3.10;76.70;;;;;;5048024;28;20200;-87
2023/01/28 12:19:56;;;;;;;10.80;8.30;;;2.90;81.40;;;;;;5044908;28;20646;-87
2023/01/28 12:22:46;;;;;;;13.37;9.13;;;2.80;77.70;;;;;;5048014;28;20204;-88
2023/01/28 12:25:26;;;;;;;14.77;9.43;;;2.60;79.90;;;;;;5016896;28;20202;-88
2023/01/28 12:28:02;;;;;;;15.97;9.10;;;2.50;84.80;;;;;;5026964;28;20226;-87
2023/01/28 12:30:43;;;;;;;12.70;8.90;;;2.60;84.60;;;;;;5030682;28;20702;-86
2023/01/28 12:33:37;;;;;;;12.50;8.87;;;2.90;78.30;;;;;;5027465;28;20223;-87
2023/01/28 12:36:15;;;;;;;12.50;8.70;;;3.10;76.70;;;;;;5022802;28;20223;-87
2023/01/28 12:38:56;;;;;;;11.73;8.97;;;3.30;70.90;;;;;;5022840;28;20218;-90
2023/01/28 12:41:31;;;;;;;12.57;9.63;;;3.10;73.70;;;;;;5015669;28;20237;-88
2023/01/28 12:44:01;;;;;;;11.60;8.30;;;3.10;77.20;;;;;;5013081;28;20227;-87
2023/01/28 12:46:38;;;;;;;12.80;9.07;;;3.00;75.70;;;;;;5006839;28;20661;-84
2023/01/28 12:49:09;;;;;;;11.43;8.53;;;3.00;76.00;;;;;;5018560;28;20596;-84
2023/01/28 12:51:49;;;;;;;12.87;8.23;;;3.00;76.40;;;;;;5014590;28;20230;-85
2023/01/28 12:54:20;;;;;;;11.87;8.60;;;2.90;76.30;;;;;;5012194;28;20309;-87
2023/01/28 12:56:52;;;;;;;13.17;9.13;;;2.80;77.50;;;;;;5009983;28;20602;-86
2023/01/28 12:59:24;;;;;;;15.30;9.60;;;2.90;78.20;;;;;;5012697;28;20233;-88
2023/01/28 13:02:01;;;;;;;14.00;9.60;;;3.10;77.20;;;;;;5015822;28;20694;-84
2023/01/28 13:04:34;;;;;;;13.10;9.30;;;3.30;77.20;;;;;;5016037;28;20248;-88
2023/01/28 13:07:06;;;;;;;11.93;9.00;;;3.20;78.50;;;;;;5039781;28;20212;-84
2023/01/28 13:09:37;;;;;;;12.23;9.10;;;3.20;77.70;;;;;;5033299;28;20575;-84
2023/01/28 13:12:07;;;;;;;12.80;9.10;;;3.00;79.10;;;;;;5032028;28;20233;-85
2023/01/28 13:14:35;;;;;;;13.80;9.10;;;3.10;78.70;;;;;;5027735;28;20246;-84
2023/01/28 13:17:12;;;;;;;13.63;9.90;;;3.10;79.30;;;;;;5022611;28;20668;-85
2023/01/28 13:19:41;;;;;;;11.47;8.70;;;3.00;81.40;;;;;;5017542;28;20229;-86
2023/01/28 13:22:24;;;;;;;12.73;9.40;;;2.90;80.00;;;;;;5016756;28;20228;-85
2023/01/28 13:24:51;;;;;;;13.87;9.10;;;3.00;79.20;;;;;;5016643;28;20223;-84
2023/01/28 13:27:25;;;;;;;13.60;8.63;;;3.00;77.70;;;;;;5011249;28;20253;-86
2023/01/28 13:30:03;;;;;;;12.97;8.83;;;2.90;78.00;;;;;;5018709;28;20714;-84
2023/01/28 13:32:33;;;;;;;12.80;9.10;;;2.80;79.80;;;;;;5014533;28;20222;-84
2023/01/28 13:35:04;;;;;;;12.93;9.70;;;2.60;82.00;;;;;;5014851;28;20230;-84
2023/01/28 13:37:34;;;;;;;12.63;9.40;;;2.40;84.50;;;;;;5017187;28;20694;-85
2023/01/28 13:40:09;;;;;;;13.03;9.37;;;2.30;85.20;;;;;;5015495;28;20258;-84
2023/01/28 13:42:37;;;;;;;15.47;9.60;;;2.30;87.30;;;;;;5012560;28;20314;-84
2023/01/28 13:45:23;;;;;;;12.80;9.03;;;2.20;87.20;;;;;;5016502;28;20225;-89
2023/01/28 13:47:54;;;;;;;12.03;8.87;;;2.20;87.20;;;;;;5014333;28;20655;-87
2023/01/28 13:50:23;;;;;;;14.80;8.50;;;2.20;87.20;;;;;;5009687;28;21100;-87
2023/01/28 13:52:57;;;;;;;12.27;8.93;;;2.20;87.20;;;;;;5022350;28;20222;-86
2023/01/28 13:55:27;;;;;;;11.80;7.67;;;2.20;87.20;;;;;;5024500;28;20211;-84
2023/01/28 13:58:35;;;;;;;18.00;9.27;;;2.20;87.20;;;;;;5023793;28;20214;-85
2023/01/28 14:01:33;;;;;;;13.90;8.87;;;2.20;87.20;;;;;;5030570;28;20230;-86
2023/01/28 14:04:56;;;;;;;15.23;8.53;;;2.10;88.30;;;;;;5027817;28;20538;-87
2023/01/28 14:07:49;;;;;;;12.50;8.43;;;1.90;89.10;;;;;;4973310;28;20673;-85
2023/01/28 14:10:33;;;;;;;12.73;8.63;;;1.90;90.40;;;;;;4967841;28;20215;-88
2023/01/28 14:13:39;;;;;;;14.23;9.23;;;1.80;90.30;;;;;;5013733;28;20205;-90
2023/01/28 14:16:24;;;;;;;14.50;9.03;;;1.80;90.60;;;;;;5033079;28;20237;-88
2023/01/28 14:18:53;;;;;;;14.37;9.10;;;1.80;90.90;;;;;;5030044;28;20272;-88
2023/01/28 14:21:21;;;;;;;15.03;9.63;;;1.90;90.30;;;;;;5033723;28;20198;-90
2023/01/28 14:23:50;;;;;;;13.67;9.00;;;1.90;90.90;;;;;;5032214;28;20223;-93
2023/01/28 14:26:40;;;;;;;15.23;9.53;;;1.80;91.00;;;;;;5033571;28;20198;-91
2023/01/28 14:29:40;;;;;;;14.23;9.10;;;1.80;91.70;;;;;;5003299;28;20191;-90
2023/01/28 14:32:14;;;;;;;20.57;10.77;;;1.90;91.40;;;;;;5003765;28;20269;-87
2023/01/28 14:34:43;;;;;;;16.37;10.80;;;1.90;91.70;;;;;;5019378;28;20231;-88
2023/01/28 14:37:13;;;;;;;14.67;9.97;;;1.90;91.80;;;;;;5014892;28;20720;-88
2023/01/28 14:39:45;;;;;;;15.37;10.60;;;2.00;91.30;;;;;;5008631;28;20219;-89
2023/01/28 14:42:19;;;;;;;14.47;10.03;;;2.10;91.30;;;;;;5023621;28;20286;-91
2023/01/28 14:44:48;;;;;;;14.93;9.53;;;2.10;91.40;;;;;;5028642;28;20208;-92
2023/01/28 14:47:47;;;;;;;16.60;10.87;;;2.10;91.30;;;;;;5028542;28;20215;-88
2023/01/28 14:50:44;;;;;;;18.40;11.00;;;2.00;91.60;;;;;;5023911;28;20201;-91
2023/01/28 14:53:40;;;;;;;15.93;10.03;;;1.90;92.00;;;;;;5033206;28;20615;-89
2023/01/28 14:59:07;;;;;;;14.33;9.80;;;1.90;92.30;;;;;;5031714;28;20764;-91
2023/01/28 15:01:34;;;;;;;17.13;10.67;;;2.10;91.60;;;;;;5028799;28;20273;-87
2023/01/28 15:04:02;;;;;;;15.07;8.97;;;2.10;91.30;;;;;;5019659;28;20229;-87
2023/01/28 15:06:35;;;;;;;13.83;9.33;;;2.10;90.90;;;;;;5034834;28;20206;-90
2023/01/28 15:09:12;;;;;;;16.77;9.20;;;2.10;90.90;;;;;;5024002;28;20678;-89
2023/01/28 15:11:43;;;;;;;13.83;8.83;;;2.00;91.00;;;;;;5028941;28;20229;-90
2023/01/28 15:14:16;;;;;;;13.87;9.40;;;2.00;91.10;;;;;;5295362;22;20251;-92
2023/01/28 15:16:48;;;;;;;15.53;9.00;;;1.90;91.10;;;;;;5050317;28;20202;-91
2023/01/28 15:19:29;;;;;;;16.40;9.70;;;1.90;91.40;;;;;;5058520;28;20547;-92
2023/01/28 15:29:33;;;;;;;17.17;10.87;;;1.70;92.20;;;;;;5031809;28;20754;-87
2023/01/28 15:32:00;;;;;;;16.37;10.83;;;1.70;92.40;;;;;;5030659;28;20260;-91
2023/01/28 15:37:12;;;;;;;15.00;9.53;;;1.70;92.60;;;;;;5030634;28;20183;-89
2023/01/28 15:39:39;;;;;;;13.17;9.47;;;1.60;92.60;;;;;;5039967;28;20224;-91
2023/01/28 15:42:07;;;;;;;14.87;9.50;;;1.60;92.70;;;;;;5044170;28;20202;-91
2023/01/28 15:44:37;;;;;;;16.33;10.23;;;1.60;92.60;;;;;;5036446;28;20217;-90
2023/01/28 15:47:15;;;;;;;19.07;10.67;;;1.70;92.40;;;;;;5032934;28;20226;-93
2023/01/28 15:49:47;;;;;;;14.50;10.40;;;1.60;92.60;;;;;;5037619;28;20202;-92
2023/01/28 15:52:15;;;;;;;19.73;12.23;;;1.50;92.80;;;;;;5032494;28;20215;-92
2023/01/28 15:54:44;;;;;;;19.43;11.10;;;1.50;92.90;;;;;;5030853;28;20206;-92
2023/01/28 15:57:19;;;;;;;15.07;9.80;;;1.50;93.30;;;;;;5034739;28;20224;-92
2023/01/28 15:59:50;;;;;;;12.87;9.27;;;1.60;92.60;;;;;;5038137;28;20228;-92
2023/01/28 16:02:18;;;;;;;15.33;9.33;;;1.60;92.50;;;;;;5037069;28;20198;-91
2023/01/28 16:04:58;;;;;;;17.10;9.80;;;1.70;92.20;;;;;;5024458;28;20221;-92
2023/01/28 16:07:26;;;;;;;15.00;9.10;;;1.60;92.60;;;;;;5035936;28;20210;-92
2023/01/28 16:09:54;;;;;;;17.43;9.07;;;1.70;92.70;;;;;;5033362;28;20217;-91
2023/01/28 16:12:22;;;;;;;14.30;9.30;;;1.80;92.10;;;;;;5037944;28;20225;-91
2023/01/28 16:14:54;;;;;;;12.63;8.80;;;1.70;92.20;;;;;;5032124;28;20555;-92
2023/01/28 16:17:23;;;;;;;14.63;9.77;;;1.90;92.20;;;;;;5033222;28;20210;-91
2023/01/28 16:19:55;;;;;;;14.93;8.43;;;1.90;92.30;;;;;;5038650;28;20210;-91
2023/01/28 16:22:34;;;;;;;12.73;8.63;;;1.90;92.30;;;;;;5040926;28;20213;-91
2023/01/28 16:25:01;;;;;;;12.13;8.50;;;1.80;92.40;;;;;;5029126;28;20218;-91
2023/01/28 16:27:30;;;;;;;12.83;8.63;;;1.70;92.90;;;;;;5031084;28;20226;-91
2023/01/28 16:29:57;;;;;;;16.33;9.40;;;1.70;92.70;;;;;;5037069;28;20206;-91
2023/01/28 16:32:35;;;;;;;16.03;9.40;;;1.70;92.70;;;;;;5037264;28;20226;-91
2023/01/28 16:35:03;;;;;;;15.47;9.57;;;1.50;93.50;;;;;;5037282;28;20211;-91
2023/01/28 16:37:31;;;;;;;12.47;9.00;;;1.50;93.50;;;;;;5029131;28;20209;-91
2023/01/28 16:39:58;;;;;;;13.63;8.47;;;1.50;93.70;;;;;;5035575;28;20574;-91
2023/01/28 16:42:25;;;;;;;13.53;9.60;;;1.50;93.90;;;;;;5031720;28;20206;-91
2023/01/28 16:44:52;;;;;;;12.80;8.27;;;1.50;93.50;;;;;;5031494;28;20202;-91
2023/01/28 16:47:19;;;;;;;15.03;8.60;;;1.50;93.90;;;;;;5022237;28;20213;-91
2023/01/28 16:49:46;;;;;;;16.10;9.20;;;1.40;94.30;;;;;;5040159;28;20211;-91
2023/01/28 16:52:13;;;;;;;14.83;9.17;;;1.40;94.30;;;;;;5033778;28;20222;-91
2023/01/28 16:54:44;;;;;;;14.23;10.37;;;1.50;94.30;;;;;;5037516;28;20203;-91
2023/01/28 16:57:14;;;;;;;15.23;10.23;;;1.50;94.30;;;;;;5029251;28;20252;-91
2023/01/28 16:59:41;;;;;;;15.97;9.63;;;1.40;94.90;;;;;;5052486;28;20190;-91
2023/01/28 17:02:11;;;;;;;13.00;9.27;;;1.40;94.90;;;;;;5054950;28;20291;-91
2023/01/28 17:04:41;;;;;;;13.20;9.20;;;1.40;95.10;;;;;;5067535;22;20242;-92
2023/01/28 17:07:08;;;;;;;15.67;10.40;;;1.40;95.10;;;;;;5050069;28;20662;-89
2023/01/28 17:09:35;;;;;;;15.63;10.37;;;1.30;95.50;;;;;;5047443;28;20629;-90
2023/01/28 17:12:04;;;;;;;13.00;9.47;;;1.30;95.50;;;;;;5050851;28;20227;-91
2023/01/28 17:14:31;;;;;;;13.93;9.67;;;1.30;95.80;;;;;;5043629;28;20202;-91
2023/01/28 17:16:58;;;;;;;14.13;9.43;;;1.20;96.20;;;;;;5051700;28;20218;-87
2023/01/28 17:19:25;;;;;;;15.93;10.03;;;1.20;96.00;;;;;;5048007;28;20359;-90
2023/01/28 17:21:51;;;;;;;14.97;10.13;;;1.30;96.10;;;;;;5056094;28;20209;-91
2023/01/28 17:24:18;;;;;;;15.83;10.53;;;1.30;96.20;;;;;;5057262;28;20232;-90
2023/01/28 17:26:45;;;;;;;18.50;10.60;;;1.30;96.20;;;;;;5054440;28;20205;-89
2023/01/28 17:29:14;;;;;;;16.97;11.20;;;1.30;96.30;;;;;;5031147;28;20224;-90
2023/01/28 17:31:40;;;;;;;15.43;9.53;;;1.20;96.40;;;;;;5048935;28;20229;-91
2023/01/28 17:34:10;;;;;;;16.87;10.50;;;1.30;96.30;;;;;;5047255;28;20225;-89
2023/01/28 17:36:37;;;;;;;15.87;10.70;;;1.30;96.00;;;;;;5032358;28;20253;-90
2023/01/28 17:39:06;;;;;;;17.20;11.17;;;1.30;96.00;;;;;;5015169;28;20221;-86
2023/01/28 17:41:33;;;;;;;15.13;10.73;;;1.30;96.30;;;;;;5034014;28;20263;-87
2023/01/28 17:44:03;;;;;;;14.57;10.33;;;1.30;96.40;;;;;;5037344;28;20601;-86
2023/01/28 17:46:32;;;;;;;16.93;11.60;;;1.20;96.30;;;;;;5035244;28;20725;-88
2023/01/28 17:49:01;;;;;;;16.40;11.47;;;1.20;96.70;;;;;;5035206;28;20226;-85
2023/01/28 17:51:28;;;;;;;17.10;10.93;;;1.20;96.70;;;;;;5036021;28;20237;-86
2023/01/28 17:53:56;;;;;;;19.03;12.57;;;1.30;96.70;;;;;;5036931;28;20237;-87
2023/01/28 17:56:25;;;;;;;21.40;13.27;;;1.30;96.50;;;;;;5031771;28;20265;-87
2023/01/28 17:58:53;;;;;;;18.40;12.30;;;1.30;96.50;;;;;;5034454;28;20244;-87
2023/01/28 18:01:20;;;;;;;21.03;14.03;;;1.30;96.90;;;;;;5014595;28;20804;-86
2023/01/28 18:03:48;;;;;;;22.23;14.37;;;1.20;97.10;;;;;;5035348;28;20238;-87
2023/01/28 18:06:16;;;;;;;21.57;13.17;;;1.20;97.60;;;;;;5029632;28;20230;-87
2023/01/28 18:08:43;;;;;;;22.63;13.67;;;1.10;97.50;;;;;;5033883;28;20217;-85
2023/01/28 18:11:12;;;;;;;21.07;13.57;;;1.10;97.70;;;;;;5042597;28;20225;-90
2023/01/28 18:13:40;;;;;;;20.73;13.00;;;1.20;97.70;;;;;;5047632;28;20221;-87
2023/01/28 18:16:13;;;;;;;19.07;12.73;;;1.10;97.80;;;;;;5044635;28;20205;-90
2023/01/28 18:18:40;;;;;;;21.07;12.47;;;1.20;97.90;;;;;;5039802;28;20627;-87
2023/01/28 18:21:18;;;;;;;20.10;12.40;;;1.10;97.80;;;;;;5048019;28;20213;-87
2023/01/28 18:23:46;;;;;;;21.97;12.53;;;1.00;97.90;;;;;;5045103;28;20689;-88
2023/01/28 18:26:13;;;;;;;19.93;13.00;;;1.00;98.10;;;;;;5045075;28;20205;-88
2023/01/28 18:28:40;;;;;;;21.83;12.67;;;1.00;98.10;;;;;;5049258;28;20292;-88
2023/01/28 18:31:07;;;;;;;20.90;12.67;;;1.00;98.30;;;;;;5130696;23;20445;-85
2023/01/28 18:33:34;;;;;;;21.23;13.50;;;1.00;98.30;;;;;;5092277;23;20244;-86
2023/01/28 18:36:01;;;;;;;21.70;13.97;;;1.00;98.10;;;;;;5022372;28;20216;-89
2023/01/28 18:38:30;;;;;;;19.83;12.60;;;1.00;98.00;;;;;;5046671;28;20658;-89
2023/01/28 18:40:57;;;;;;;22.20;13.30;;;1.00;98.10;;;;;;5024708;28;20218;-83
2023/01/28 18:43:24;;;;;;;20.73;12.93;;;1.00;98.20;;;;;;5045306;28;20213;-88
2023/01/28 18:45:51;;;;;;;24.43;13.43;;;1.00;98.10;;;;;;5042274;28;20206;-84
2023/01/28 18:48:19;;;;;;;22.53;13.83;;;1.00;98.20;;;;;;5041307;28;20210;-84
2023/01/28 18:50:51;;;;;;;20.97;13.23;;;1.00;98.50;;;;;;5047525;28;20555;-84
2023/01/28 18:53:18;;;;;;;23.57;13.13;;;1.10;98.50;;;;;;5044800;28;20225;-84
2023/01/28 18:55:48;;;;;;;22.50;13.83;;;1.10;98.10;;;;;;5038558;28;20221;-89
2023/01/28 18:58:15;;;;;;;23.87;14.07;;;1.10;97.90;;;;;;5039901;28;20200;-81
2023/01/28 19:00:43;;;;;;;21.40;12.87;;;1.00;98.10;;;;;;5034965;28;20217;-84
2023/01/28 19:03:11;;;;;;;22.07;13.30;;;1.00;98.10;;;;;;5030361;28;20215;-84
2023/01/28 19:05:40;;;;;;;19.10;12.30;;;1.00;98.20;;;;;;5034166;28;20210;-85
2023/01/28 19:08:08;;;;;;;21.53;12.70;;;1.00;98.30;;;;;;5041312;28;20303;-88
2023/01/28 19:10:35;;;;;;;21.73;12.93;;;1.20;98.10;;;;;;5038883;28;20299;-85
2023/01/28 19:13:04;;;;;;;21.47;13.83;;;1.30;97.90;;;;;;5029837;28;20716;-84
2023/01/28 19:15:31;;;;;;;21.60;13.57;;;1.50;97.50;;;;;;5031634;28;20237;-86
2023/01/28 19:17:58;;;;;;;21.43;12.80;;;1.50;97.20;;;;;;5030488;28;20292;-87
2023/01/28 19:20:25;;;;;;;18.87;12.23;;;1.50;97.10;;;;;;5030167;28;20229;-87
2023/01/28 19:22:52;;;;;;;22.30;14.13;;;1.40;97.20;;;;;;5036182;28;20225;-89
2023/01/28 19:25:19;;;;;;;17.73;11.73;;;1.40;97.20;;;;;;5007555;28;20867;-87
2023/01/28 19:27:46;;;;;;;18.87;11.83;;;1.30;97.40;;;;;;5029134;28;20580;-85
2023/01/28 19:30:16;;;;;;;18.37;12.17;;;1.20;97.50;;;;;;5029155;28;20223;-86
2023/01/28 19:32:43;;;;;;;20.03;12.30;;;1.20;97.40;;;;;;5029812;28;20851;-84
2023/01/28 19:35:10;;;;;;;18.93;11.73;;;1.20;97.40;;;;;;5031248;28;20218;-85
2023/01/28 19:37:37;;;;;;;18.13;11.53;;;1.20;97.60;;;;;;5041484;28;20206;-86
2023/01/28 19:40:06;;;;;;;19.10;12.83;;;1.20;97.70;;;;;;5038552;28;20644;-86
2023/01/28 19:42:33;;;;;;;19.10;12.20;;;1.30;97.60;;;;;;5030180;28;20643;-86
2023/01/28 19:44:59;;;;;;;21.77;13.13;;;1.20;97.70;;;;;;5033809;28;20205;-84
2023/01/28 19:47:28;;;;;;;20.00;13.07;;;1.20;97.80;;;;;;5034661;28;20689;-85